Terminal Aerodrome Forecast
Issued by NWS

Home | Current Version | Previous Version | Text Only | Print | Product List | Glossary On
Versions: 1 2 3 4 5 6 7 8 9 10 11 12 13 14 15 16 17
443
FTUS46 KMTR 080606 RRA
TAFSTS
TAF
KSTS 080606Z 0806/0906 08004KT P6SM -RA OVC025 WS020/18025KT
      TEMPO 0808/0812 3SM RA BR OVC015
     FM081200 06009KT 5SM -RA BR BKN020 OVC035
     FM081600 12004KT 6SM -RA SCT007 BKN015 OVC025
     FM090000 16004KT P6SM VCSH BKN015 OVC030=

USA.gov is the U.S. government's official web portal to all federal, state and local government web resources and services.